3IL9 weather

Alekat Acres Airport
Atlanta, Illinois, United States

Public forecast

Using degrees Fahrenheit for public forecast. Weather courtesy of forecast.io.

Closest aviation weather report (METAR) to Alekat Acres Airport

Closest report is Logan County Airport, 7.4 nm (13.7 km) S. Retrieved 2020/05/31 13:15 UTC (11 minutes ago):

KAAA 311315Z AUTO 10011KT 10SM CLR 17/07 A3032 RMK AO2 T01710067

Closest aviation forecast (TAF) to Alekat Acres Airport

Closest forecast is Central Illinois Regional Airport at Bloomington-Normal, 21.6 nm (40.1 km) ENE. Retrieved 2020/05/31 13:40 UTC (0 seconds ago):

TAF KBMI 311237Z 3113/0112 08007KT P6SM SKC FM311500 11007KT P6SM SKC FM011000 15007KT P6SM BKN100